首页
METAR-TAF:

METAR-TAF

机场 :

福岡機場

福岡, 日本

纬度: 33-35N, 经度: 130-27E, 海拔: 9米

当前天气观测

该预报发布于15分钟前的21:30 UTC
风速3节,风向,在东北南转南东之间变化
温度 23°C
湿度 100%
气压 1006 hPa
能见度10公里或以上
少量云层高于800英尺
散云层高于5000英尺
多云层高于7000英尺
小雨

METAR: RJFF 232130Z 09003KT 050V150 9999 -RA FEW008 SCT050 BKN070 23/23 Q1006 BECMG 16011KT RMK 1ST008 3SC050 6AC070 A2972

时间: 06:45 (21:45 UTC)

预报

该预报发布于4小时和40分钟前的17:05 UTC
预报有效从23日的 18点(UTC)到 25日的 00点(UTC)
风速14节,风向南转南东
能见度10公里或以上
少量云层高于800英尺
散云层高于1500英尺
多云层高于3000英尺
小阵雨
短暂存在
从 24日的 02点(UTC)到 24日的 09点(UTC)
能見度: 3000
阵雨, 轻雾
成为
从 24日的 18点(UTC)到 24日的 21点(UTC)
风速4节,风向南转南东
成为
从 24日的 21点(UTC)到 25日的 00点(UTC)
风速7节,风向西转西北

TAF: RJFF 231705Z 2318/2500 16014KT 9999 -SHRA FEW008 SCT015 BKN030 TEMPO 2402/2409 3000 SHRA BR BECMG 2418/2421 15004KT BECMG 2421/2500 30007KT

超过4000个机场的气象观测和天气预报(METAR&TAF报告)。

可查询的气象台以黄色和红色小点在地图上表示。

将鼠标移到小点上方,可查看气象台名称。

然后点击查看天气观测和预报。

如需切换地图:点击带黑十字的绿色按钮放大地图;点击带横线的绿色按钮缩小地图;或者点击绿色箭头查看邻近地区的地图。


METAR-TAF: